Time;durP1;ratioP1;P1;durP2;ratioP2;P2;SDS_P1;SDS_P2;PMS_P1;PMS_P2;Temp;Humidity;BMP_temperature;BMP_pressure;BME280_temperature;BME280_humidity;BME280_pressure;Samples;Min_cycle;Max_cycle;Signal;HPM_P1;HPM_P2
2022/06/20 00:18:32;;;;;;;6.73;2.60;;;14.90;99.90;;;;;;5055426;28;20323;-59
2022/06/20 00:30:02;;;;;;;10.73;3.17;;;14.80;99.90;;;;;;5074254;28;20195;-59
2022/06/20 00:32:30;;;;;;;12.03;2.70;;;14.70;99.90;;;;;;5058512;28;20192;-58
2022/06/20 00:35:00;;;;;;;14.33;3.70;;;14.70;99.90;;;;;;5076430;28;20196;-59
2022/06/20 00:37:29;;;;;;;10.13;2.87;;;14.70;99.90;;;;;;5076961;28;20705;-60
2022/06/20 00:40:00;;;;;;;4.63;2.43;;;14.70;99.90;;;;;;5061826;28;20193;-59
2022/06/20 00:42:35;;;;;;;9.40;2.97;;;14.60;99.90;;;;;;5056437;28;20372;-58
2022/06/20 00:45:08;;;;;;;11.00;2.83;;;14.60;99.90;;;;;;5088021;28;20217;-58
2022/06/20 00:47:37;;;;;;;11.80;2.90;;;14.60;99.90;;;;;;5076671;28;20185;-59
2022/06/20 00:54:02;;;;;;;17.30;3.00;;;14.60;99.90;;;;;;5088978;28;20199;-59
2022/06/20 00:56:39;;;;;;;9.10;3.13;;;14.70;99.90;;;;;;5076730;28;20196;-58
2022/06/20 00:59:12;;;;;;;9.77;2.67;;;14.70;99.90;;;;;;5076071;28;20190;-58
2022/06/20 01:09:57;;;;;;;16.47;2.77;;;14.70;99.90;;;;;;5056624;28;20231;-59
2022/06/20 01:12:30;;;;;;;7.40;2.67;;;14.70;99.90;;;;;;5075406;28;20538;-57
2022/06/20 01:14:58;;;;;;;9.13;3.03;;;14.70;99.90;;;;;;5075928;28;20193;-58
2022/06/20 01:17:35;;;;;;;9.63;3.10;;;14.70;99.90;;;;;;5075679;28;20205;-59
2022/06/20 01:20:08;;;;;;;7.27;2.77;;;14.60;99.90;;;;;;5075234;28;20223;-58
2022/06/20 01:22:44;;;;;;;10.30;2.93;;;14.60;99.90;;;;;;5057365;28;20279;-59
2022/06/20 01:38:26;;;;;;;13.13;3.23;;;14.40;99.90;;;;;;5033529;28;20205;-58
2022/06/20 01:43:37;;;;;;;12.90;3.17;;;14.20;99.90;;;;;;5001667;28;20574;-58
2022/06/20 01:46:10;;;;;;;12.33;2.93;;;14.20;99.90;;;;;;5028453;28;20206;-59
2022/06/20 01:48:42;;;;;;;8.73;2.80;;;14.20;99.90;;;;;;5043900;28;20346;-58
2022/06/20 01:51:20;;;;;;;9.57;3.30;;;14.20;99.90;;;;;;5036710;28;20681;-59
2022/06/20 01:53:51;;;;;;;12.67;3.00;;;14.20;99.90;;;;;;5032990;28;20232;-59
2022/06/20 01:56:22;;;;;;;14.90;3.50;;;14.20;99.90;;;;;;5052625;28;20258;-59
2022/06/20 01:58:55;;;;;;;16.43;3.30;;;14.10;99.90;;;;;;5075146;28;20188;-58
2022/06/20 02:01:24;;;;;;;7.70;2.87;;;14.10;99.90;;;;;;5075055;28;20206;-58
2022/06/20 02:03:53;;;;;;;8.73;2.90;;;14.10;99.90;;;;;;5057188;28;20184;-58
2022/06/20 02:06:23;;;;;;;8.63;3.10;;;14.10;99.90;;;;;;5059772;28;20246;-58
2022/06/20 02:08:54;;;;;;;8.43;3.10;;;14.10;99.90;;;;;;5075137;28;20315;-58
2022/06/20 02:11:27;;;;;;;7.17;2.77;;;14.10;99.90;;;;;;5074584;28;20241;-58
2022/06/20 02:13:59;;;;;;;8.17;3.20;;;14.10;99.90;;;;;;5074594;28;20197;-58
2022/06/20 02:16:30;;;;;;;10.37;3.23;;;14.00;99.90;;;;;;5074899;28;20188;-58
2022/06/20 02:19:03;;;;;;;8.23;3.20;;;14.00;99.90;;;;;;5074242;28;20306;-59
2022/06/20 02:21:36;;;;;;;8.53;3.00;;;14.00;99.90;;;;;;5074759;28;20548;-58
2022/06/20 02:24:08;;;;;;;8.33;2.57;;;14.00;99.90;;;;;;5063676;28;20203;-59
2022/06/20 02:26:39;;;;;;;10.23;3.03;;;14.00;99.90;;;;;;5054514;28;20184;-59
2022/06/20 02:29:23;;;;;;;8.67;2.97;;;14.00;99.90;;;;;;5054549;28;20252;-58
2022/06/20 02:31:54;;;;;;;5.90;2.83;;;14.00;99.90;;;;;;5061947;28;20200;-59
2022/06/20 02:34:25;;;;;;;9.07;2.80;;;14.00;99.90;;;;;;5074059;28;20231;-58
2022/06/20 02:36:56;;;;;;;8.87;3.03;;;14.00;99.90;;;;;;5056169;28;20687;-58
2022/06/20 02:39:26;;;;;;;11.23;2.73;;;13.90;99.90;;;;;;5074204;28;20192;-59
2022/06/20 02:41:59;;;;;;;9.03;2.57;;;13.90;99.90;;;;;;5056316;28;20211;-58
2022/06/20 02:44:29;;;;;;;8.83;2.63;;;13.90;99.90;;;;;;5073959;28;20517;-58
2022/06/20 02:46:57;;;;;;;7.20;2.60;;;13.90;99.90;;;;;;5056114;28;20196;-58
2022/06/20 02:49:28;;;;;;;9.60;2.97;;;13.90;99.90;;;;;;5074323;28;20214;-58
2022/06/20 02:52:00;;;;;;;6.80;3.10;;;13.90;99.90;;;;;;5073930;28;20195;-59
2022/06/20 02:54:36;;;;;;;6.40;2.70;;;13.90;99.90;;;;;;5073844;28;20200;-57
2022/06/20 03:07:07;;;;;;;6.63;2.80;;;13.90;99.90;;;;;;5063304;28;20204;-58
2022/06/20 03:09:40;;;;;;;7.40;3.17;;;13.80;99.90;;;;;;5073308;28;20230;-59
2022/06/20 03:12:10;;;;;;;5.10;2.53;;;13.90;99.90;;;;;;5073203;28;20607;-58
2022/06/20 03:14:42;;;;;;;3.53;2.73;;;13.80;99.90;;;;;;5043311;28;20235;-58
2022/06/20 03:17:12;;;;;;;8.13;2.60;;;13.80;99.90;;;;;;5058897;28;20699;-58
2022/06/20 03:19:45;;;;;;;6.57;2.90;;;13.80;99.90;;;;;;5053644;28;20563;-58
2022/06/20 03:22:20;;;;;;;5.03;2.50;;;13.80;99.90;;;;;;5053755;28;20268;-59
2022/06/20 03:24:52;;;;;;;11.27;2.67;;;13.80;99.90;;;;;;5070299;28;20196;-58
2022/06/20 03:27:25;;;;;;;7.60;3.07;;;13.90;99.90;;;;;;5073431;28;20206;-58
2022/06/20 03:29:58;;;;;;;9.20;2.47;;;13.90;99.90;;;;;;5073199;28;20258;-59
2022/06/20 03:32:27;;;;;;;4.57;2.50;;;13.90;99.90;;;;;;5073208;28;20279;-58
2022/06/20 03:34:56;;;;;;;6.63;2.87;;;13.90;99.90;;;;;;5055563;28;20266;-58
2022/06/20 03:37:24;;;;;;;6.50;2.60;;;13.90;99.90;;;;;;5073076;28;20187;-58
2022/06/20 03:39:55;;;;;;;8.93;3.10;;;13.90;99.90;;;;;;5073315;28;20199;-58
2022/06/20 03:42:23;;;;;;;7.67;2.77;;;13.90;99.90;;;;;;5073195;28;20560;-59
2022/06/20 03:44:55;;;;;;;4.53;2.37;;;13.90;99.90;;;;;;5073179;28;20190;-58
2022/06/20 03:47:28;;;;;;;4.80;2.80;;;13.90;99.90;;;;;;5079811;28;20191;-58
2022/06/20 03:50:01;;;;;;;5.63;2.80;;;13.90;99.90;;;;;;5072964;28;20612;-57
2022/06/20 03:52:35;;;;;;;6.90;2.80;;;13.90;99.90;;;;;;5072807;28;20215;-58
2022/06/20 03:55:13;;;;;;;10.97;3.20;;;13.90;99.90;;;;;;5055183;28;20198;-58
2022/06/20 03:57:46;;;;;;;8.23;2.70;;;13.90;99.90;;;;;;5073319;28;20188;-59
2022/06/20 04:00:17;;;;;;;6.27;2.73;;;13.90;99.90;;;;;;5066974;28;20195;-58
2022/06/20 04:03:19;;;;;;;7.23;2.60;;;13.90;99.90;;;;;;5072353;28;20302;-57
2022/06/20 04:05:53;;;;;;;5.77;2.50;;;13.90;99.90;;;;;;5055128;28;20660;-59
2022/06/20 04:10:57;;;;;;;10.17;2.67;;;13.90;99.90;;;;;;5072769;28;20208;-58
2022/06/20 04:11:19;;;;;;;6.43;2.60;;;14.00;99.90;;;;;;5072574;28;20245;-59
2022/06/20 04:13:56;;;;;;;6.17;2.90;;;14.00;99.90;;;;;;5072925;28;20219;-58
2022/06/20 04:16:30;;;;;;;7.90;3.03;;;14.00;99.90;;;;;;5072967;28;20552;-58
2022/06/20 04:19:07;;;;;;;12.33;3.17;;;14.00;99.90;;;;;;5073187;28;20311;-58
2022/06/20 04:21:40;;;;;;;4.43;2.70;;;14.00;99.90;;;;;;5065454;28;20283;-58
2022/06/20 04:24:18;;;;;;;4.97;2.80;;;14.10;99.90;;;;;;5073247;28;20226;-58
2022/06/20 04:26:53;;;;;;;8.87;2.80;;;14.10;99.90;;;;;;5072672;28;20192;-58
2022/06/20 04:29:26;;;;;;;14.00;3.10;;;14.10;99.90;;;;;;5072387;28;20204;-58
2022/06/20 04:32:00;;;;;;;5.93;2.63;;;14.10;99.90;;;;;;5072551;28;20192;-59
2022/06/20 04:34:34;;;;;;;6.03;2.97;;;14.10;99.90;;;;;;5088478;28;20187;-59
2022/06/20 04:37:11;;;;;;;8.90;3.60;;;14.10;99.90;;;;;;5070000;28;20195;-58
2022/06/20 04:39:47;;;;;;;8.83;3.47;;;14.10;99.90;;;;;;5072371;28;20191;-58
2022/06/20 04:42:21;;;;;;;7.20;3.17;;;14.10;99.90;;;;;;5070603;28;20279;-58
2022/06/20 04:44:56;;;;;;;5.30;2.83;;;14.10;99.90;;;;;;5064354;28;20196;-59
2022/06/20 04:47:40;;;;;;;9.47;3.63;;;14.20;99.90;;;;;;5052787;28;20220;-58
2022/06/20 04:50:15;;;;;;;13.30;3.60;;;14.20;99.90;;;;;;5080484;28;20251;-58
2022/06/20 04:52:45;;;;;;;7.70;3.00;;;14.20;99.90;;;;;;5076154;28;20275;-59
2022/06/20 04:55:16;;;;;;;9.27;3.57;;;14.20;99.90;;;;;;5052019;28;20188;-58
2022/06/20 04:57:53;;;;;;;8.10;3.60;;;14.20;99.90;;;;;;5058602;28;20192;-58
2022/06/20 05:00:26;;;;;;;11.27;3.77;;;14.20;99.90;;;;;;5075919;28;20190;-58
2022/06/20 05:02:56;;;;;;;11.63;3.43;;;14.30;99.90;;;;;;5070867;28;20283;-58
2022/06/20 05:05:30;;;;;;;11.47;3.97;;;14.30;99.90;;;;;;5048094;28;20220;-58
2022/06/20 05:08:01;;;;;;;12.27;4.07;;;14.30;99.90;;;;;;5061334;28;20204;-58
2022/06/20 05:10:35;;;;;;;11.67;3.87;;;14.30;99.90;;;;;;5075585;28;20243;-59
2022/06/20 05:13:13;;;;;;;9.20;3.40;;;14.30;99.90;;;;;;5042921;28;20275;-58
2022/06/20 05:15:44;;;;;;;8.83;3.67;;;14.40;99.90;;;;;;5069392;28;20220;-58
2022/06/20 05:18:22;;;;;;;10.60;3.93;;;14.40;99.90;;;;;;5072862;28;20198;-59
2022/06/20 05:20:57;;;;;;;11.97;3.87;;;14.50;99.90;;;;;;5075671;28;20218;-58
2022/06/20 05:23:34;;;;;;;11.13;3.60;;;14.50;99.90;;;;;;5075396;28;20203;-58
2022/06/20 05:26:04;;;;;;;11.27;3.13;;;14.50;99.90;;;;;;5065313;28;20189;-58
2022/06/20 05:28:37;;;;;;;11.40;3.77;;;14.60;99.90;;;;;;5072115;28;20198;-58
2022/06/20 05:31:08;;;;;;;7.77;3.40;;;14.60;99.90;;;;;;5069351;28;20273;-58
2022/06/20 05:33:42;;;;;;;9.83;3.50;;;14.70;99.90;;;;;;5048065;28;20255;-58
2022/06/20 05:36:19;;;;;;;10.43;3.60;;;14.70;99.90;;;;;;5067529;28;20275;-58
2022/06/20 05:38:53;;;;;;;10.77;3.57;;;14.70;99.90;;;;;;5064232;28;20196;-58
2022/06/20 05:41:22;;;;;;;8.23;3.10;;;14.80;99.90;;;;;;5073631;28;20245;-58
2022/06/20 05:43:52;;;;;;;8.23;3.27;;;14.80;99.90;;;;;;5072640;28;20657;-58
2022/06/20 05:46:26;;;;;;;11.13;3.60;;;14.80;99.90;;;;;;5075451;28;20291;-58
2022/06/20 05:48:57;;;;;;;8.27;3.13;;;14.80;99.90;;;;;;5069156;28;20187;-58
2022/06/20 05:51:28;;;;;;;8.37;3.00;;;14.80;99.90;;;;;;5095261;28;20208;-58
2022/06/20 05:54:00;;;;;;;7.27;3.07;;;14.80;99.90;;;;;;5077446;28;20283;-58
2022/06/20 05:56:31;;;;;;;10.83;3.50;;;14.90;99.90;;;;;;5073729;28;20206;-58
2022/06/20 05:59:03;;;;;;;9.17;3.20;;;14.90;99.90;;;;;;5075368;28;20197;-58
2022/06/20 06:01:35;;;;;;;7.17;3.07;;;15.00;99.90;;;;;;5073680;28;20184;-58
2022/06/20 06:04:17;;;;;;;9.57;3.43;;;15.10;99.90;;;;;;5073682;28;20184;-59
2022/06/20 06:06:51;;;;;;;7.13;3.40;;;15.20;99.90;;;;;;5051483;28;20204;-59
2022/06/20 06:09:25;;;;;;;7.33;3.37;;;15.30;99.90;;;;;;5054572;28;20212;-58
2022/06/20 06:11:58;;;;;;;9.37;2.90;;;15.50;99.90;;;;;;5054883;28;20675;-59
2022/06/20 06:14:33;;;;;;;6.63;2.57;;;15.60;99.90;;;;;;5054986;28;20587;-59
2022/06/20 06:17:06;;;;;;;8.43;2.63;;;15.70;99.90;;;;;;5054904;28;20656;-58
2022/06/20 06:19:57;;;;;;;6.83;2.73;;;15.80;99.90;;;;;;5054649;28;20234;-58
2022/06/20 06:22:29;;;;;;;11.83;3.03;;;15.90;99.90;;;;;;5054588;28;20648;-58
2022/06/20 06:25:00;;;;;;;4.97;2.73;;;15.90;99.90;;;;;;5054916;28;20192;-58
2022/06/20 06:27:33;;;;;;;5.67;2.50;;;16.00;99.90;;;;;;5054796;28;20689;-58
2022/06/20 06:30:06;;;;;;;6.10;2.37;;;16.00;99.90;;;;;;5072324;28;20631;-58
2022/06/20 06:32:41;;;;;;;6.50;2.20;;;15.90;99.90;;;;;;5074423;28;20693;-58
2022/06/20 06:35:22;;;;;;;6.67;2.43;;;16.00;99.90;;;;;;5074132;28;20564;-58
2022/06/20 06:37:57;;;;;;;4.70;2.47;;;16.00;99.90;;;;;;5074302;28;20229;-58
2022/06/20 06:40:33;;;;;;;4.03;2.43;;;16.00;99.90;;;;;;5074688;28;20712;-59
2022/06/20 06:43:07;;;;;;;4.93;2.20;;;16.10;99.90;;;;;;5074571;28;20698;-58
2022/06/20 06:45:37;;;;;;;5.90;2.30;;;16.20;99.90;;;;;;5062120;28;20195;-58
2022/06/20 06:48:12;;;;;;;9.87;2.30;;;16.30;99.90;;;;;;5074172;28;20664;-58
2022/06/20 06:50:47;;;;;;;5.10;2.40;;;16.30;99.90;;;;;;5035276;28;20195;-58
2022/06/20 06:53:23;;;;;;;9.87;2.30;;;16.40;99.90;;;;;;5054010;28;20664;-58
2022/06/20 06:55:55;;;;;;;2.37;1.87;;;16.40;99.90;;;;;;5054026;28;20277;-58
2022/06/20 06:58:32;;;;;;;7.87;2.20;;;16.50;99.90;;;;;;5054124;28;20233;-58
2022/06/20 07:01:07;;;;;;;6.80;2.30;;;16.40;99.90;;;;;;5065500;28;20193;-59
2022/06/20 07:03:40;;;;;;;4.17;2.30;;;16.50;99.90;;;;;;5073520;28;20221;-58
2022/06/20 07:06:17;;;;;;;5.27;2.03;;;16.40;99.90;;;;;;5054136;28;20193;-58
2022/06/20 07:09:06;;;;;;;5.67;2.13;;;16.40;99.90;;;;;;5035919;28;20683;-59
2022/06/20 07:11:45;;;;;;;4.90;2.10;;;16.40;99.90;;;;;;5053380;28;20218;-58
2022/06/20 07:14:18;;;;;;;4.90;2.00;;;16.50;99.90;;;;;;5053636;28;20618;-59
2022/06/20 07:17:03;;;;;;;4.87;2.10;;;16.50;99.90;;;;;;5049749;28;20215;-59
2022/06/20 07:19:33;;;;;;;6.87;2.00;;;16.50;99.90;;;;;;5053580;28;20613;-59
2022/06/20 07:22:03;;;;;;;7.83;2.27;;;16.50;99.90;;;;;;5053722;28;20702;-58
2022/06/20 07:24:35;;;;;;;2.40;1.80;;;16.60;99.90;;;;;;5035719;28;20203;-59
2022/06/20 07:27:11;;;;;;;6.60;2.10;;;16.60;99.90;;;;;;5035469;28;20193;-59
2022/06/20 07:29:48;;;;;;;3.40;1.90;;;16.70;99.90;;;;;;5035455;28;20256;-59
2022/06/20 07:32:24;;;;;;;6.10;2.30;;;16.70;99.90;;;;;;5043602;28;20600;-58
2022/06/20 07:34:59;;;;;;;5.80;2.00;;;16.70;99.90;;;;;;5073041;28;20242;-58
2022/06/20 07:37:35;;;;;;;5.83;2.20;;;16.80;99.90;;;;;;5073349;28;20176;-58
2022/06/20 07:40:09;;;;;;;5.40;2.10;;;16.90;99.90;;;;;;5073317;28;20193;-59
2022/06/20 07:42:41;;;;;;;6.17;2.10;;;17.10;99.90;;;;;;5073472;28;20543;-59
2022/06/20 07:45:15;;;;;;;3.10;2.17;;;17.40;99.90;;;;;;5073306;28;20234;-59
2022/06/20 07:47:51;;;;;;;5.93;2.10;;;17.70;99.90;;;;;;5073142;28;20274;-59
2022/06/20 07:50:23;;;;;;;5.70;2.23;;;17.90;99.90;;;;;;5071553;28;20195;-58
2022/06/20 07:53:09;;;;;;;2.40;1.80;;;18.20;99.90;;;;;;5072579;28;20215;-58
2022/06/20 07:55:41;;;;;;;4.50;1.93;;;18.50;99.90;;;;;;5055700;28;20278;-59
2022/06/20 07:58:22;;;;;;;4.90;1.90;;;18.70;99.90;;;;;;5088590;28;20740;-58
2022/06/20 08:00:52;;;;;;;3.67;2.00;;;18.60;99.90;;;;;;5073271;28;20184;-58
2022/06/20 08:03:26;;;;;;;3.80;1.93;;;18.40;99.90;;;;;;5073441;28;20653;-59
2022/06/20 08:06:00;;;;;;;5.33;2.10;;;18.20;99.90;;;;;;5073230;28;20205;-59
2022/06/20 08:08:37;;;;;;;6.17;2.23;;;18.00;99.90;;;;;;5071917;28;20243;-58
2022/06/20 08:11:09;;;;;;;2.70;1.93;;;17.90;99.90;;;;;;5052961;28;20271;-59
2022/06/20 08:13:48;;;;;;;2.27;1.90;;;17.80;99.90;;;;;;5035016;28;20224;-59
2022/06/20 08:16:20;;;;;;;5.83;2.40;;;17.70;99.90;;;;;;5053121;28;20189;-60
2022/06/20 08:18:51;;;;;;;3.53;2.40;;;17.70;99.90;;;;;;5072109;28;20232;-60
2022/06/20 08:21:25;;;;;;;2.97;2.10;;;17.90;99.90;;;;;;5054760;28;20196;-58
2022/06/20 08:23:56;;;;;;;5.50;2.23;;;18.20;99.90;;;;;;5075388;28;20271;-58
2022/06/20 08:26:31;;;;;;;2.77;1.87;;;18.40;99.90;;;;;;5064983;28;20232;-58
2022/06/20 08:29:05;;;;;;;4.10;1.87;;;18.60;99.90;;;;;;5052857;28;20548;-59
2022/06/20 08:31:36;;;;;;;3.00;1.70;;;18.80;99.90;;;;;;5056767;28;20193;-58
2022/06/20 08:34:14;;;;;;;3.80;1.80;;;18.80;99.90;;;;;;5056879;28;20215;-58
2022/06/20 08:36:52;;;;;;;5.73;1.83;;;18.60;99.90;;;;;;5056606;28;20204;-59
2022/06/20 08:39:30;;;;;;;2.83;2.23;;;18.30;99.90;;;;;;5072006;28;20191;-59
2022/06/20 08:42:34;;;;;;;4.20;2.03;;;18.20;99.90;;;;;;5076462;28;20192;-59
2022/06/20 08:45:23;;;;;;;4.67;2.40;;;18.30;99.90;;;;;;5076455;28;20249;-60
2022/06/20 08:48:25;;;;;;;3.47;1.97;;;18.20;99.90;;;;;;5058275;28;20199;-58
2022/06/20 08:51:18;;;;;;;3.60;2.10;;;18.50;99.90;;;;;;5076202;28;20213;-58
2022/06/20 08:54:16;;;;;;;4.83;2.13;;;18.50;99.90;;;;;;5055096;28;20293;-59
2022/06/20 08:56:55;;;;;;;3.70;2.00;;;18.60;99.90;;;;;;5063120;28;20220;-58
2022/06/20 08:59:35;;;;;;;4.30;2.10;;;18.60;99.90;;;;;;5053608;28;20181;-58
2022/06/20 09:02:14;;;;;;;4.03;2.10;;;18.50;99.90;;;;;;5051533;28;20211;-58
2022/06/20 09:05:05;;;;;;;2.97;2.10;;;18.50;99.90;;;;;;5076246;28;20196;-59
2022/06/20 09:08:04;;;;;;;6.47;2.37;;;18.50;99.90;;;;;;5075998;28;20247;-59
2022/06/20 09:10:49;;;;;;;3.67;2.33;;;18.50;99.90;;;;;;5052094;28;20245;-58
2022/06/20 09:13:52;;;;;;;3.50;2.07;;;18.50;99.90;;;;;;5075780;28;20204;-59
2022/06/20 09:16:31;;;;;;;6.60;2.07;;;18.50;99.90;;;;;;5058769;28;20192;-59
2022/06/20 09:19:20;;;;;;;2.77;2.30;;;18.50;99.90;;;;;;5058592;28;20224;-59
2022/06/20 09:21:59;;;;;;;7.13;2.03;;;18.80;99.90;;;;;;5058044;28;20191;-58
2022/06/20 09:24:43;;;;;;;4.10;2.20;;;19.20;99.90;;;;;;5075471;28;20211;-58
2022/06/20 09:27:19;;;;;;;7.20;2.77;;;19.30;99.90;;;;;;5075555;28;20613;-58
2022/06/20 09:30:03;;;;;;;4.90;2.50;;;19.50;99.90;;;;;;5055702;28;20280;-59
2022/06/20 09:33:07;;;;;;;5.87;3.07;;;19.70;99.90;;;;;;5062788;28;20262;-58
2022/06/20 09:36:02;;;;;;;3.07;2.30;;;19.70;99.90;;;;;;5054645;28;20254;-58
2022/06/20 09:38:44;;;;;;;4.50;2.30;;;19.90;99.90;;;;;;5073018;28;20605;-58
2022/06/20 09:45:40;;;;;;;7.27;2.50;;;19.90;99.90;;;;;;5055640;28;20200;-58
2022/06/20 09:52:20;;;;;;;3.87;2.60;;;20.10;99.90;;;;;;5084734;28;20176;-58
2022/06/20 09:54:57;;;;;;;5.13;2.10;;;19.90;99.90;;;;;;5075217;28;20688;-59
2022/06/20 09:57:45;;;;;;;5.03;2.70;;;20.10;99.90;;;;;;5075095;28;20270;-58
2022/06/20 10:00:19;;;;;;;3.83;2.60;;;20.10;99.90;;;;;;5057003;28;20689;-58
2022/06/20 10:03:24;;;;;;;6.57;2.60;;;20.10;99.90;;;;;;5085567;28;20188;-59
2022/06/20 10:05:58;;;;;;;6.53;2.60;;;20.60;99.90;;;;;;5088593;28;20267;-59
2022/06/20 10:08:36;;;;;;;9.17;2.40;;;20.90;99.90;;;;;;5070592;28;20303;-58
2022/06/20 10:11:12;;;;;;;5.90;2.27;;;21.10;99.90;;;;;;5077032;28;20226;-58
2022/06/20 10:14:09;;;;;;;4.83;2.20;;;20.90;99.90;;;;;;5036701;28;20212;-58
2022/06/20 10:16:44;;;;;;;3.00;2.10;;;21.00;99.90;;;;;;5071117;28;20888;-59
2022/06/20 10:19:21;;;;;;;5.93;2.07;;;21.40;99.90;;;;;;5056545;28;20787;-58
2022/06/20 10:21:55;;;;;;;4.67;2.00;;;21.90;99.90;;;;;;5074322;28;20205;-59
2022/06/20 10:24:45;;;;;;;4.47;1.70;;;22.40;99.90;;;;;;5040036;28;20247;-59
2022/06/20 10:27:35;;;;;;;1.77;1.50;;;22.60;99.90;;;;;;5074544;28;20326;-58
2022/06/20 10:30:09;;;;;;;4.33;1.90;;;22.80;99.90;;;;;;5065442;28;20188;-59
2022/06/20 10:32:56;;;;;;;3.83;2.00;;;23.00;99.90;;;;;;5074608;28;20227;-58
2022/06/20 10:35:44;;;;;;;2.77;1.90;;;23.40;99.90;;;;;;5074569;28;20545;-59
2022/06/20 10:38:23;;;;;;;2.30;1.73;;;23.60;99.90;;;;;;5066523;28;20271;-60
2022/06/20 10:41:03;;;;;;;2.53;1.80;;;23.60;99.90;;;;;;5051680;28;20203;-59
2022/06/20 10:43:46;;;;;;;4.53;1.92;;;23.80;99.90;;;;;;5071122;28;20268;-59
2022/06/20 10:46:25;;;;;;;2.00;1.80;;;24.00;99.90;;;;;;5073178;28;20204;-59
2022/06/20 10:49:22;;;;;;;5.60;1.90;;;23.80;99.90;;;;;;5055215;28;20196;-59
2022/06/20 10:52:05;;;;;;;4.43;2.20;;;23.20;99.90;;;;;;5074882;28;20728;-58
2022/06/20 10:54:50;;;;;;;2.43;2.10;;;22.90;99.90;;;;;;5073862;28;20306;-58
2022/06/20 10:57:38;;;;;;;3.33;1.93;;;23.00;99.90;;;;;;5073230;28;20260;-58
2022/06/20 11:00:10;;;;;;;5.03;2.07;;;22.80;99.90;;;;;;5077942;28;20592;-58
2022/06/20 11:03:17;;;;;;;6.67;2.30;;;22.50;99.90;;;;;;5073689;28;20190;-59
2022/06/20 11:05:52;;;;;;;3.20;2.03;;;22.70;99.90;;;;;;5073542;28;20214;-59
2022/06/20 11:08:38;;;;;;;2.13;1.97;;;23.60;99.90;;;;;;5073525;28;20237;-59
2022/06/20 11:11:21;;;;;;;6.20;2.40;;;23.80;99.90;;;;;;5055667;28;20198;-59
2022/06/20 11:13:55;;;;;;;5.70;2.10;;;24.10;99.90;;;;;;5072597;28;20224;-59
2022/06/20 11:16:32;;;;;;;3.67;2.40;;;24.60;99.90;;;;;;5074264;28;20198;-58
2022/06/20 11:19:13;;;;;;;5.07;2.20;;;23.90;99.90;;;;;;5073614;28;20223;-58
2022/06/20 11:21:52;;;;;;;3.00;2.30;;;23.20;99.90;;;;;;5073010;28;20715;-59
2022/06/20 11:24:38;;;;;;;7.53;2.10;;;23.20;99.90;;;;;;5072690;28;20185;-59
2022/06/20 11:36:13;;;;;;;2.53;2.10;;;24.00;99.90;;;;;;5052787;28;20170;-64
2022/06/20 11:39:02;;;;;;;4.77;1.83;;;24.00;99.90;;;;;;5064997;28;20215;-59
2022/06/20 11:41:38;;;;;;;4.47;2.00;;;23.70;99.90;;;;;;5064201;28;20208;-67
2022/06/20 11:44:23;;;;;;;5.37;2.30;;;23.50;99.90;;;;;;5062391;28;20210;-63
2022/06/20 11:47:07;;;;;;;4.07;2.00;;;23.70;99.90;;;;;;5056504;28;20265;-63
2022/06/20 11:49:57;;;;;;;6.07;2.07;;;23.90;99.90;;;;;;5043590;28;20210;-63
2022/06/20 11:52:50;;;;;;;7.23;2.47;;;24.10;99.90;;;;;;5061348;28;20744;-63
2022/06/20 11:55:26;;;;;;;5.23;2.40;;;24.20;99.90;;;;;;5059306;28;20208;-63
2022/06/20 11:58:19;;;;;;;5.83;2.13;;;24.20;99.90;;;;;;5072337;28;20206;-63
2022/06/20 12:01:16;;;;;;;2.63;1.87;;;24.10;99.90;;;;;;5072591;28;20203;-63
2022/06/20 12:03:57;;;;;;;3.33;1.93;;;24.10;99.90;;;;;;5069412;28;20196;-63
2022/06/20 12:06:32;;;;;;;6.40;1.87;;;23.70;99.90;;;;;;5072083;28;20789;-63
2022/06/20 12:09:07;;;;;;;4.23;2.13;;;23.10;99.90;;;;;;5072564;28;20554;-63
2022/06/20 12:11:50;;;;;;;5.13;2.03;;;23.00;99.90;;;;;;5073004;28;20510;-63
2022/06/20 12:14:32;;;;;;;4.27;2.17;;;23.00;99.90;;;;;;5073023;28;20610;-62
2022/06/20 12:17:22;;;;;;;3.70;2.07;;;22.90;99.90;;;;;;5073224;28;20247;-61
2022/06/20 12:23:23;;;;;;;3.83;1.80;;;22.70;99.90;;;;;;5072096;28;20196;-58
2022/06/20 12:26:13;;;;;;;8.97;2.53;;;22.70;99.90;;;;;;5069889;28;20229;-57
2022/06/20 12:29:14;;;;;;;5.70;2.50;;;23.10;99.90;;;;;;5067761;28;20664;-60
2022/06/20 12:32:05;;;;;;;5.13;2.00;;;23.10;99.90;;;;;;5077873;28;20207;-61
2022/06/20 12:34:45;;;;;;;4.73;1.93;;;23.30;99.90;;;;;;5069507;28;20299;-61
2022/06/20 12:37:36;;;;;;;4.87;2.23;;;23.20;99.90;;;;;;5059537;28;20612;-61
2022/06/20 12:40:15;;;;;;;3.37;2.20;;;23.40;99.90;;;;;;5075734;28;20275;-61
2022/06/20 12:42:51;;;;;;;3.03;2.10;;;23.80;99.90;;;;;;5073479;28;20726;-61
2022/06/20 12:45:58;;;;;;;4.40;2.20;;;23.80;99.90;;;;;;5055748;28;20616;-61
2022/06/20 12:52:14;;;;;;;3.23;2.17;;;23.20;99.90;;;;;;5069261;28;20189;-61
2022/06/20 12:55:07;;;;;;;4.17;1.90;;;23.30;99.90;;;;;;5080549;28;20221;-61
2022/06/20 12:58:12;;;;;;;3.93;1.90;;;23.50;99.90;;;;;;5080655;28;20204;-60
2022/06/20 13:05:31;;;;;;;2.27;2.00;;;23.60;99.90;;;;;;5071410;28;20187;-60
2022/06/20 13:08:24;;;;;;;7.07;2.00;;;23.60;99.90;;;;;;5070030;28;20198;-61
2022/06/20 13:11:03;;;;;;;2.67;2.10;;;23.50;99.90;;;;;;5081185;28;20225;-60
2022/06/20 13:14:15;;;;;;;5.87;2.43;;;23.50;99.90;;;;;;5077967;28;20220;-60
2022/06/20 13:16:56;;;;;;;3.00;2.50;;;23.50;99.90;;;;;;5009327;28;20273;-61
2022/06/20 13:19:42;;;;;;;3.00;2.10;;;23.50;99.90;;;;;;5015348;28;20856;-60
2022/06/20 13:22:17;;;;;;;7.43;2.23;;;23.00;99.90;;;;;;5053132;28;20282;-60
2022/06/20 13:25:24;;;;;;;5.23;2.57;;;23.10;99.90;;;;;;5058349;28;20192;-60
2022/06/20 13:31:39;;;;;;;6.10;2.10;;;23.80;99.90;;;;;;5032652;28;20189;-61
2022/06/20 13:34:50;;;;;;;4.00;2.20;;;24.00;99.90;;;;;;5067663;28;20293;-61
2022/06/20 13:37:59;;;;;;;4.67;2.50;;;23.80;99.90;;;;;;5068793;28;20196;-61
2022/06/20 13:40:35;;;;;;;6.83;2.33;;;23.50;99.90;;;;;;5053361;28;20313;-60
2022/06/20 13:43:19;;;;;;;5.20;2.60;;;23.60;99.90;;;;;;5059220;28;20533;-61
2022/06/20 13:46:30;;;;;;;3.83;2.17;;;23.90;99.90;;;;;;5053658;28;20686;-60
2022/06/20 13:49:13;;;;;;;5.53;2.13;;;23.60;99.90;;;;;;5035899;28;20196;-61
2022/06/20 13:51:50;;;;;;;3.80;2.10;;;23.40;99.90;;;;;;5086092;28;20194;-61
2022/06/20 13:54:54;;;;;;;4.97;2.33;;;23.50;99.90;;;;;;5071766;28;20203;-60
2022/06/20 13:57:34;;;;;;;9.00;2.77;;;23.80;99.90;;;;;;5067169;28;20232;-60
2022/06/20 14:00:22;;;;;;;9.43;2.40;;;24.20;99.90;;;;;;5059745;28;20185;-61
2022/06/20 14:03:16;;;;;;;6.03;2.50;;;24.20;99.90;;;;;;5064693;28;20192;-60
2022/06/20 14:06:08;;;;;;;6.33;2.67;;;24.40;99.90;;;;;;5073690;28;20193;-60
2022/06/20 14:08:58;;;;;;;7.63;2.50;;;24.40;99.90;;;;;;5082562;28;20227;-60
2022/06/20 14:11:58;;;;;;;5.57;2.60;;;24.60;99.90;;;;;;5040331;28;20202;-61
2022/06/20 14:14:47;;;;;;;5.20;2.50;;;24.80;99.90;;;;;;5072265;28;20237;-61
2022/06/20 14:17:41;;;;;;;4.53;2.30;;;25.10;99.90;;;;;;5075624;28;20605;-61
2022/06/20 14:20:32;;;;;;;5.93;2.30;;;25.20;99.90;;;;;;5064885;28;20345;-61
2022/06/20 14:23:29;;;;;;;8.83;2.80;;;24.60;99.90;;;;;;5072393;28;20198;-61
2022/06/20 14:26:01;;;;;;;6.63;2.70;;;24.50;99.90;;;;;;5062547;28;20204;-61
2022/06/20 14:28:35;;;;;;;4.70;2.50;;;24.80;99.90;;;;;;5080419;28;20230;-61
2022/06/20 14:31:24;;;;;;;6.03;2.37;;;24.80;99.90;;;;;;5072623;28;20217;-60
2022/06/20 14:33:57;;;;;;;4.70;2.53;;;24.80;99.90;;;;;;5078621;28;20222;-61
2022/06/20 14:36:50;;;;;;;7.83;2.30;;;25.00;99.90;;;;;;5054585;28;20293;-61
2022/06/20 14:39:29;;;;;;;5.50;2.53;;;24.90;99.90;;;;;;5045354;28;20209;-61
2022/06/20 14:42:20;;;;;;;4.03;2.40;;;25.00;99.90;;;;;;5072444;28;20217;-61
2022/06/20 14:45:22;;;;;;;5.13;2.43;;;25.30;99.90;;;;;;5070927;28;20309;-61
2022/06/20 14:47:57;;;;;;;7.90;2.50;;;25.30;99.90;;;;;;5071602;28;20625;-61
2022/06/20 14:50:28;;;;;;;7.17;2.30;;;25.60;99.90;;;;;;5048807;28;20916;-61
2022/06/20 14:53:03;;;;;;;3.83;2.13;;;25.70;99.90;;;;;;5053660;28;20293;-61
2022/06/20 14:55:42;;;;;;;4.27;2.20;;;25.80;99.90;;;;;;5070773;28;20205;-61
2022/06/20 14:58:31;;;;;;;2.73;2.00;;;25.60;99.90;;;;;;5071003;28;20214;-60
2022/06/20 15:01:30;;;;;;;3.73;2.03;;;25.50;99.90;;;;;;5061406;28;20203;-60
2022/06/20 15:04:18;;;;;;;7.17;2.30;;;25.20;99.90;;;;;;5044578;28;20659;-61
2022/06/20 15:07:11;;;;;;;3.97;2.03;;;25.30;99.90;;;;;;5072184;28;20655;-61
2022/06/20 15:10:18;;;;;;;6.03;2.20;;;25.40;99.90;;;;;;5076333;28;20763;-61
2022/06/20 15:12:52;;;;;;;5.47;2.30;;;25.60;99.90;;;;;;5069783;28;20193;-61
2022/06/20 15:15:31;;;;;;;7.30;2.17;;;25.70;99.90;;;;;;5077236;28;20213;-61
2022/06/20 15:18:20;;;;;;;8.07;2.47;;;25.80;99.90;;;;;;5069174;28;20282;-62
2022/06/20 15:20:58;;;;;;;3.10;2.00;;;25.70;99.90;;;;;;5051466;28;20279;-61
2022/06/20 15:23:51;;;;;;;4.53;2.13;;;25.70;99.90;;;;;;5056087;28;20188;-61